Accueil
METAR-TAF:

METAR-TAF

Aéroports :

Udon Thani, Thaïlande

latitude: 17-23N, longitude: 102-48E, altitude: 177 m

Observation

Le bulletin a été fait il y a 25 minutes, à 15:00 UTC
Vent calme
Température 28°C
Humidité 84%
Pression 1009 hPa
Visibilité 10 km ou plus
pas de nuages en-dessous de 1500 mètres et pas de cumulonimbus.

METAR: VTUD 121500Z 00000KT CAVOK 28/25 Q1009 NOSIG

Heure: 22:25 (15:25 UTC)

Prévision

Le bulletin a été fait il y a 4 heures et 25 minutes, à 11:00 UTC
Prévision valable du 12 à 12 UTC au 13 à 12 UTC
Vent 7 kt de sud-ouest
Visibilité: 9000 m
Quelques nuages à une hauteur de 3000 ft

TAF: VTUD 121100Z 1212/1312 23007KT 9000 FEW030

Observations et prévisions météorologiques de plus de 4000 aéroports (messages METAR et TAF).

Les stations disponibles sont représentées par des disques jaunes et rouges sur la carte.

Passer la souris dessus pour voir le nom de la station.

Cliquer dessus pour voir les observations et prévisions météorologiques.

Pour changer de carte: cliquez sur les boutons verts avec une croix noire pour zoomer, sur le bouton vert avec un tiret pour effectuer un zoom arrière, ou sur les flèches vertes pour les cartes adjacentes.


METAR-TAF: